Time;durP1;ratioP1;P1;durP2;ratioP2;P2;SDS_P1;SDS_P2;PMS_P1;PMS_P2;Temp;Humidity;BMP_temperature;BMP_pressure;BME280_temperature;BME280_humidity;BME280_pressure;Samples;Min_cycle;Max_cycle;Signal;HPM_P1;HPM_P2
2022/12/17 13:06:53;;;;;;;13.63;8.00;;;2.10;99.90;;;;;;5046494;28;20185;-85
2022/12/17 13:09:46;;;;;;;13.47;7.63;;;2.20;99.90;;;;;;5043893;28;20244;-87
2022/12/17 13:12:33;;;;;;;14.80;8.10;;;2.30;99.90;;;;;;5090544;22;20293;-84
2022/12/17 13:15:05;;;;;;;13.70;7.87;;;2.10;99.90;;;;;;5017105;28;20232;-84
2022/12/17 13:17:42;;;;;;;15.50;8.40;;;1.80;99.90;;;;;;5017677;28;20205;-81
2022/12/17 13:20:28;;;;;;;12.73;8.40;;;2.00;99.90;;;;;;5037785;28;20169;-85
2022/12/17 13:23:15;;;;;;;13.50;8.20;;;2.40;99.90;;;;;;5015606;28;20181;-84
2022/12/17 13:25:41;;;;;;;13.20;8.77;;;2.50;99.90;;;;;;5003837;28;20175;-82
2022/12/17 13:28:28;;;;;;;14.97;8.87;;;2.30;99.90;;;;;;5002930;28;20174;-84
2022/12/17 13:31:01;;;;;;;14.63;9.17;;;1.80;99.90;;;;;;5011016;28;20222;-85
2022/12/17 13:33:34;;;;;;;15.00;8.40;;;1.50;99.90;;;;;;4987616;28;20281;-83
2022/12/17 13:36:03;;;;;;;13.17;7.93;;;1.10;99.90;;;;;;4989877;28;20179;-84
2022/12/17 13:38:50;;;;;;;13.13;7.93;;;0.70;99.90;;;;;;5009601;28;20218;-83
2022/12/17 13:41:19;;;;;;;15.70;8.70;;;0.40;99.90;;;;;;5009997;28;20313;-83
2022/12/17 13:43:56;;;;;;;13.00;7.83;;;-0.10;99.90;;;;;;4991383;28;20183;-83
2022/12/17 13:46:23;;;;;;;13.20;7.60;;;-0.30;99.90;;;;;;5014138;28;20221;-81
2022/12/17 13:48:59;;;;;;;12.43;8.30;;;-0.50;99.90;;;;;;5015335;28;20185;-82
2022/12/17 13:51:27;;;;;;;11.60;7.47;;;-0.70;99.90;;;;;;5016648;28;20292;-82
2022/12/17 13:53:56;;;;;;;12.67;7.67;;;-0.90;99.90;;;;;;5016034;28;20207;-82
2022/12/17 13:56:30;;;;;;;13.43;7.67;;;-1.00;99.90;;;;;;4999367;28;20236;-82
2022/12/17 13:58:58;;;;;;;13.63;7.80;;;-1.20;99.90;;;;;;5016464;28;20626;-82
2022/12/17 14:01:26;;;;;;;13.97;8.20;;;-1.30;99.90;;;;;;4998680;28;20204;-82
2022/12/17 14:03:57;;;;;;;12.63;8.20;;;-1.40;99.90;;;;;;4998279;28;20182;-82
2022/12/17 14:06:27;;;;;;;13.73;8.00;;;-1.50;99.90;;;;;;5016028;28;20240;-83
2022/12/17 14:08:55;;;;;;;12.27;7.60;;;-1.60;99.90;;;;;;4998974;28;20516;-82
2022/12/17 14:14:32;;;;;;;11.57;7.50;;;-1.90;99.90;;;;;;4999334;28;20688;-82
2022/12/17 14:16:58;;;;;;;12.77;7.93;;;-1.90;99.90;;;;;;5003820;28;20177;-83
2022/12/17 14:19:25;;;;;;;13.23;7.40;;;-2.10;99.90;;;;;;5016309;28;20179;-82
2022/12/17 14:21:51;;;;;;;10.83;6.97;;;-2.10;99.90;;;;;;4996666;28;20197;-83
2022/12/17 14:24:19;;;;;;;12.37;7.63;;;-2.10;99.90;;;;;;5014588;28;20175;-83
2022/12/17 14:26:50;;;;;;;10.97;6.70;;;-2.20;99.90;;;;;;5028267;28;20184;-82
2022/12/17 14:29:28;;;;;;;12.20;7.03;;;-2.30;99.90;;;;;;4998400;28;20225;-82
2022/12/17 14:31:57;;;;;;;11.43;6.47;;;-2.40;99.90;;;;;;4998354;28;20234;-82
2022/12/17 14:34:23;;;;;;;11.63;6.83;;;-2.30;99.90;;;;;;5015745;28;20171;-82
2022/12/17 14:36:59;;;;;;;11.67;6.70;;;-2.50;99.90;;;;;;5015093;28;20171;-82
2022/12/17 14:39:27;;;;;;;11.27;6.60;;;-2.60;99.90;;;;;;5015261;28;20645;-83
2022/12/17 14:44:56;;;;;;;12.23;6.57;;;-2.70;99.90;;;;;;5024518;28;20166;-81
2022/12/17 14:47:26;;;;;;;11.53;6.30;;;-2.80;99.90;;;;;;5009529;28;20243;-80
2022/12/17 14:49:54;;;;;;;11.23;6.13;;;-2.80;99.90;;;;;;5013971;28;20641;-83
2022/12/17 14:52:27;;;;;;;9.90;6.00;;;-2.90;99.90;;;;;;4997129;28;20720;-85
2022/12/17 14:54:52;;;;;;;8.47;5.80;;;-3.10;99.90;;;;;;4990785;28;20169;-83
2022/12/17 14:57:20;;;;;;;8.77;5.50;;;-3.10;99.90;;;;;;5003464;28;20177;-83
2022/12/17 14:59:46;;;;;;;9.00;5.57;;;-3.20;99.90;;;;;;4998574;28;20194;-84
2022/12/17 15:02:22;;;;;;;9.73;5.43;;;-3.20;99.90;;;;;;5014638;28;20657;-84
2022/12/17 15:04:49;;;;;;;8.00;5.10;;;-3.30;99.90;;;;;;5016222;28;20213;-78
2022/12/17 15:07:24;;;;;;;8.77;5.03;;;-3.30;99.90;;;;;;4999396;28;20646;-84
2022/12/17 15:09:51;;;;;;;7.13;5.00;;;-3.40;99.90;;;;;;5018000;28;20621;-83
2022/12/17 15:12:17;;;;;;;6.23;4.43;;;-3.40;99.90;;;;;;4998671;28;20287;-85
2022/12/17 15:14:43;;;;;;;8.33;4.87;;;-3.60;99.90;;;;;;5001754;28;20265;-86
2022/12/17 15:17:08;;;;;;;8.23;4.77;;;-3.70;99.90;;;;;;4999317;28;20198;-86
2022/12/17 15:19:34;;;;;;;7.70;5.07;;;-3.70;99.90;;;;;;4999857;28;20190;-86
2022/12/17 15:21:59;;;;;;;8.70;4.97;;;-3.80;99.90;;;;;;4999861;28;20206;-85
2022/12/17 15:24:26;;;;;;;7.30;4.87;;;-3.90;99.90;;;;;;5017308;28;20586;-85
2022/12/17 15:26:51;;;;;;;8.03;4.70;;;-3.90;99.90;;;;;;4999994;28;20175;-85
2022/12/17 15:29:17;;;;;;;6.93;4.80;;;-4.00;99.90;;;;;;5017955;28;20574;-85
2022/12/17 15:31:42;;;;;;;8.07;4.57;;;-4.10;99.90;;;;;;4999835;28;20225;-84
2022/12/17 15:34:10;;;;;;;6.90;4.73;;;-4.20;99.90;;;;;;5017422;28;20262;-85
2022/12/17 15:36:35;;;;;;;7.27;4.60;;;-3.90;99.90;;;;;;5001102;28;20617;-86
2022/12/17 15:39:01;;;;;;;7.93;4.43;;;-4.00;99.90;;;;;;5001360;28;20171;-85
2022/12/17 15:44:11;;;;;;;7.87;4.67;;;-4.30;99.90;;;;;;5021957;28;20213;-84
2022/12/17 15:46:38;;;;;;;7.43;4.13;;;-4.40;99.90;;;;;;5019225;28;20236;-84
2022/12/17 15:49:04;;;;;;;6.00;3.97;;;-4.40;99.90;;;;;;5002475;28;20179;-84
2022/12/17 15:51:29;;;;;;;6.33;4.53;;;-4.40;99.90;;;;;;5017297;28;20575;-85
2022/12/17 15:53:55;;;;;;;8.47;4.57;;;-4.60;99.90;;;;;;5015884;28;20198;-85
2022/12/17 15:56:23;;;;;;;8.37;4.43;;;-4.70;99.90;;;;;;5019565;28;20180;-89
2022/12/17 15:58:49;;;;;;;7.63;4.27;;;-4.80;99.90;;;;;;5001624;28;20175;-87
2022/12/17 16:01:15;;;;;;;6.03;4.07;;;-4.80;99.90;;;;;;5017783;28;20263;-86
2022/12/17 16:03:40;;;;;;;6.27;4.07;;;-4.80;99.90;;;;;;5001350;28;20186;-86
2022/12/17 16:06:06;;;;;;;8.17;4.70;;;-4.90;99.90;;;;;;5002459;28;20179;-87
2022/12/17 16:08:32;;;;;;;7.27;4.83;;;-4.80;99.90;;;;;;5017866;28;20184;-86
2022/12/17 16:10:57;;;;;;;8.40;4.93;;;-4.90;99.90;;;;;;5018232;28;20218;-86
2022/12/17 16:13:23;;;;;;;10.17;5.30;;;-5.00;99.90;;;;;;4983252;28;20215;-86
2022/12/17 16:15:59;;;;;;;7.10;4.70;;;-5.20;99.90;;;;;;4976780;28;20224;-85
2022/12/17 16:18:25;;;;;;;8.20;5.03;;;-5.30;99.90;;;;;;4994687;28;20198;-85
2022/12/17 16:20:50;;;;;;;7.40;4.83;;;-5.40;99.90;;;;;;4994613;28;20240;-85
2022/12/17 16:23:16;;;;;;;6.67;4.77;;;-5.40;99.90;;;;;;4978193;28;20548;-85
2022/12/17 16:25:42;;;;;;;7.93;4.47;;;-5.40;99.90;;;;;;4996381;28;20256;-85
2022/12/17 16:28:07;;;;;;;7.57;4.80;;;-5.40;99.90;;;;;;4976581;28;20701;-84
2022/12/17 16:30:33;;;;;;;11.00;6.17;;;-5.40;99.90;;;;;;4994087;28;20263;-85
2022/12/17 16:32:59;;;;;;;8.53;5.30;;;-5.60;99.90;;;;;;4993558;28;20193;-82
2022/12/17 16:35:27;;;;;;;11.23;5.83;;;-5.70;99.90;;;;;;4976679;28;20213;-82
2022/12/17 16:37:53;;;;;;;13.33;6.80;;;-5.80;99.90;;;;;;4976801;28;20174;-82
2022/12/17 16:40:18;;;;;;;14.77;6.60;;;-5.90;99.90;;;;;;4976395;28;20497;-82
2022/12/17 16:42:44;;;;;;;14.90;6.80;;;-6.00;99.90;;;;;;4993517;28;20202;-82
2022/12/17 16:45:10;;;;;;;13.77;7.27;;;-6.00;99.90;;;;;;4976688;28;20276;-84
2022/12/17 16:47:36;;;;;;;14.80;6.60;;;-6.10;99.90;;;;;;4993962;28;20264;-82
2022/12/17 16:50:01;;;;;;;12.30;6.63;;;-6.10;99.90;;;;;;5002325;28;20231;-82
2022/12/17 16:52:27;;;;;;;12.80;6.37;;;-6.00;99.90;;;;;;4995369;28;20215;-82
2022/12/17 16:54:52;;;;;;;11.53;6.80;;;-6.00;99.90;;;;;;4996062;28;20176;-82
2022/12/17 16:57:18;;;;;;;10.33;6.27;;;-6.10;99.90;;;;;;5012096;28;20178;-82
2022/12/17 16:59:43;;;;;;;11.83;6.20;;;-6.10;99.90;;;;;;5013555;28;20175;-82
2022/12/17 17:02:14;;;;;;;9.73;6.17;;;-6.10;99.90;;;;;;4994406;28;20202;-81
2022/12/17 17:04:40;;;;;;;9.30;5.60;;;-6.20;99.90;;;;;;5013373;28;20202;-82
2022/12/17 17:07:06;;;;;;;10.07;5.37;;;-6.30;99.90;;;;;;4996029;28;20457;-82
2022/12/17 17:09:31;;;;;;;12.20;5.80;;;-6.20;99.90;;;;;;4995933;28;20173;-82
2022/12/17 17:11:57;;;;;;;11.20;6.57;;;-6.30;99.90;;;;;;5013254;28;20213;-81
2022/12/17 17:14:24;;;;;;;10.97;5.23;;;-6.30;99.90;;;;;;4995091;28;20550;-82
2022/12/17 17:16:51;;;;;;;7.77;5.40;;;-6.40;99.90;;;;;;5013640;28;20431;-81
2022/12/17 17:19:17;;;;;;;10.70;5.53;;;-6.50;99.90;;;;;;5013983;28;20425;-82
2022/12/17 17:21:52;;;;;;;11.33;6.27;;;-6.40;99.90;;;;;;4995742;28;20438;-81
2022/12/17 17:24:20;;;;;;;11.03;6.03;;;-6.50;99.90;;;;;;4996017;28;20409;-82
2022/12/17 17:26:46;;;;;;;14.50;6.77;;;-6.60;99.90;;;;;;5013652;28;20419;-81
2022/12/17 17:29:11;;;;;;;11.43;6.80;;;-6.70;99.90;;;;;;4996106;28;20413;-81
2022/12/17 17:31:38;;;;;;;11.30;5.13;;;-6.80;99.90;;;;;;5014121;28;20432;-82
2022/12/17 17:34:12;;;;;;;8.43;4.93;;;-6.90;99.90;;;;;;5013312;28;20199;-82
2022/12/17 17:36:39;;;;;;;8.33;5.07;;;-7.00;99.90;;;;;;4996279;28;20413;-83
2022/12/17 17:39:05;;;;;;;7.77;4.97;;;-7.00;99.90;;;;;;4996553;28;20408;-81
2022/12/17 17:41:31;;;;;;;7.40;4.97;;;-7.20;99.90;;;;;;5014315;28;20434;-83
2022/12/17 17:44:01;;;;;;;7.83;5.37;;;-7.10;99.90;;;;;;5013458;28;20414;-82
2022/12/17 17:46:28;;;;;;;11.57;5.33;;;-7.10;99.90;;;;;;5013027;28;20477;-82
2022/12/17 17:48:57;;;;;;;9.13;5.20;;;-7.10;99.90;;;;;;5011481;28;20936;-81
2022/12/17 17:51:28;;;;;;;9.83;5.77;;;-7.20;99.90;;;;;;4996419;28;20441;-81
2022/12/17 17:53:54;;;;;;;8.47;5.53;;;-7.40;99.90;;;;;;4995747;28;20450;-82
2022/12/17 17:56:22;;;;;;;7.90;5.43;;;-7.30;99.90;;;;;;4996646;28;20408;-82
2022/12/17 17:59:19;;;;;;;8.67;4.80;;;-7.30;99.90;;;;;;5014283;28;20410;-82
2022/12/17 18:01:49;;;;;;;9.83;5.40;;;-7.20;99.90;;;;;;4992483;28;20504;-84
2022/12/17 18:04:19;;;;;;;5.60;4.27;;;-7.30;99.90;;;;;;4993582;28;20473;-82
2022/12/17 18:06:45;;;;;;;7.97;4.67;;;-7.20;99.90;;;;;;4994207;28;20415;-82
2022/12/17 18:09:11;;;;;;;10.00;5.13;;;-7.20;99.90;;;;;;4995390;28;20439;-82
2022/12/17 18:11:39;;;;;;;7.87;5.03;;;-7.30;99.90;;;;;;4993718;28;20450;-82
2022/12/17 18:14:07;;;;;;;8.13;5.03;;;-7.20;99.90;;;;;;4995165;28;20696;-81
2022/12/17 18:16:41;;;;;;;10.60;6.40;;;-7.30;99.90;;;;;;4993869;28;20420;-81
2022/12/17 18:19:11;;;;;;;13.63;7.60;;;-7.30;99.90;;;;;;4995545;28;20391;-82
2022/12/17 18:21:37;;;;;;;13.17;7.90;;;-7.30;99.90;;;;;;4995829;28;20957;-82
2022/12/17 18:24:07;;;;;;;15.70;6.37;;;-7.40;99.90;;;;;;4995538;28;20411;-82
2022/12/17 18:26:36;;;;;;;9.07;5.27;;;-7.40;99.90;;;;;;4994560;28;20187;-82
2022/12/17 18:29:07;;;;;;;7.90;5.13;;;-7.50;99.90;;;;;;4998855;28;20952;-82
2022/12/17 18:31:33;;;;;;;9.07;5.43;;;-7.60;99.90;;;;;;5019372;28;20796;-82
2022/12/17 18:34:00;;;;;;;8.80;5.60;;;-7.60;99.90;;;;;;5001357;28;21011;-81
2022/12/17 18:36:28;;;;;;;8.47;4.70;;;-7.60;99.90;;;;;;5019197;28;20625;-82
2022/12/17 18:38:59;;;;;;;11.03;5.60;;;-7.80;99.90;;;;;;5019664;28;20406;-82
2022/12/17 18:44:11;;;;;;;8.43;4.30;;;-7.90;99.90;;;;;;5020523;28;20765;-82
2022/12/17 18:46:37;;;;;;;7.27;4.73;;;-7.80;99.90;;;;;;4998371;28;20421;-81
2022/12/17 18:49:06;;;;;;;6.50;4.13;;;-7.80;99.90;;;;;;5015650;28;20422;-81
2022/12/17 18:51:33;;;;;;;6.63;4.30;;;-7.70;99.90;;;;;;5015331;28;20979;-81
2022/12/17 18:54:01;;;;;;;7.80;4.60;;;-7.70;99.90;;;;;;5015002;28;20593;-81
2022/12/17 18:56:28;;;;;;;6.07;4.00;;;-7.70;99.90;;;;;;4997990;28;20442;-81
2022/12/17 18:58:55;;;;;;;6.97;4.07;;;-7.70;99.90;;;;;;5015610;28;20409;-81
2022/12/17 19:01:25;;;;;;;6.80;4.23;;;-7.70;99.90;;;;;;5015465;28;20847;-81
2022/12/17 19:03:51;;;;;;;6.00;3.90;;;-7.90;99.90;;;;;;5014921;28;20522;-81
2022/12/17 19:06:18;;;;;;;7.87;4.53;;;-7.90;99.90;;;;;;5015211;28;20493;-81
2022/12/17 19:08:44;;;;;;;7.30;4.33;;;-8.00;99.90;;;;;;5015428;28;20182;-81
2022/12/17 19:11:14;;;;;;;7.93;5.00;;;-8.10;99.90;;;;;;5016326;28;20450;-81
2022/12/17 19:13:39;;;;;;;12.40;5.63;;;-8.00;99.90;;;;;;5014845;28;20195;-81
2022/12/17 19:16:08;;;;;;;8.50;5.13;;;-8.20;99.90;;;;;;5015337;28;20415;-81
2022/12/17 19:18:34;;;;;;;8.67;4.93;;;-8.30;99.90;;;;;;5015428;28;20167;-79
2022/12/17 19:21:00;;;;;;;9.63;5.40;;;-8.40;99.90;;;;;;5014906;28;20432;-81
2022/12/17 19:23:26;;;;;;;9.90;5.43;;;-8.50;99.90;;;;;;5014022;28;20712;-81
2022/12/17 19:25:51;;;;;;;8.90;5.63;;;-8.60;99.90;;;;;;5014980;28;20418;-80
2022/12/17 19:28:17;;;;;;;10.50;5.90;;;-8.50;99.90;;;;;;5015457;28;20186;-84
2022/12/17 19:30:43;;;;;;;9.30;4.53;;;-8.40;99.90;;;;;;5015168;28;20174;-80
2022/12/17 19:33:08;;;;;;;8.43;4.70;;;-8.50;99.90;;;;;;5014855;28;20199;-80
2022/12/17 19:35:35;;;;;;;6.97;5.40;;;-8.40;99.90;;;;;;5014359;28;20175;-79
2022/12/17 19:38:01;;;;;;;8.53;4.67;;;-8.40;99.90;;;;;;5015650;28;20630;-79
2022/12/17 19:40:26;;;;;;;8.43;4.70;;;-8.40;99.90;;;;;;5012615;28;20422;-80
2022/12/17 19:42:55;;;;;;;7.83;5.23;;;-8.30;99.90;;;;;;5013282;28;20203;-80
2022/12/17 19:45:21;;;;;;;7.10;4.60;;;-8.40;99.90;;;;;;5013645;28;20186;-80
2022/12/17 19:47:47;;;;;;;6.40;4.20;;;-8.40;99.90;;;;;;5015323;28;20414;-80
2022/12/17 19:50:13;;;;;;;5.93;4.23;;;-8.40;99.90;;;;;;5014342;28;20233;-80
2022/12/17 19:52:38;;;;;;;7.33;3.97;;;-8.40;99.90;;;;;;5014718;28;20466;-80
2022/12/17 19:55:04;;;;;;;5.70;3.67;;;-8.40;99.90;;;;;;5013800;28;20171;-80
2022/12/17 19:57:31;;;;;;;5.97;4.57;;;-8.60;99.90;;;;;;5013750;28;20547;-80
2022/12/17 19:59:56;;;;;;;6.10;3.93;;;-8.70;99.90;;;;;;5015276;28;20194;-79
2022/12/17 20:02:22;;;;;;;6.13;3.70;;;-8.70;99.90;;;;;;5014822;28;20513;-80
2022/12/17 20:04:47;;;;;;;7.07;3.73;;;-8.60;99.90;;;;;;5015764;28;20210;-80
2022/12/17 20:07:13;;;;;;;5.67;3.77;;;-8.70;99.90;;;;;;5014738;28;20660;-80
2022/12/17 20:09:39;;;;;;;7.10;3.53;;;-8.90;99.90;;;;;;5014132;28;20174;-80
2022/12/17 20:12:05;;;;;;;6.67;3.60;;;-8.80;99.90;;;;;;5013720;28;20681;-80
2022/12/17 20:14:33;;;;;;;7.17;3.57;;;-8.90;99.90;;;;;;4997374;28;20175;-80
2022/12/17 20:16:59;;;;;;;6.10;3.70;;;-8.90;99.90;;;;;;5015614;28;20504;-80
2022/12/17 20:19:29;;;;;;;6.97;3.60;;;-8.90;99.90;;;;;;5014457;28;20453;-80
2022/12/17 20:21:56;;;;;;;6.20;3.70;;;-8.90;99.90;;;;;;4997368;28;20430;-80
2022/12/17 20:24:22;;;;;;;7.40;3.20;;;-8.80;99.90;;;;;;5015508;28;20928;-80
2022/12/17 20:26:50;;;;;;;6.33;3.23;;;-8.70;99.90;;;;;;5015405;28;20414;-80
2022/12/17 20:29:17;;;;;;;5.37;3.50;;;-8.80;99.90;;;;;;5015609;28;20422;-80
2022/12/17 20:31:43;;;;;;;5.83;3.77;;;-8.80;99.90;;;;;;4998082;28;20533;-80
2022/12/17 20:34:12;;;;;;;5.53;3.90;;;-8.90;99.90;;;;;;5015383;28;20492;-80
2022/12/17 20:36:39;;;;;;;7.93;4.30;;;-8.90;99.90;;;;;;4998199;28;20175;-80
2022/12/17 20:39:06;;;;;;;6.67;4.17;;;-8.90;99.90;;;;;;4998144;28;20423;-80
2022/12/17 20:41:33;;;;;;;5.93;4.30;;;-8.90;99.90;;;;;;4998335;28;20438;-80
2022/12/17 20:44:04;;;;;;;8.80;4.67;;;-8.90;99.90;;;;;;5015275;28;20438;-81
2022/12/17 20:46:29;;;;;;;8.50;4.93;;;-9.10;99.90;;;;;;5015963;28;20402;-80
2022/12/17 20:48:58;;;;;;;18.37;8.77;;;-9.10;99.90;;;;;;5015578;28;20406;-80
2022/12/17 20:51:26;;;;;;;11.43;7.20;;;-9.40;99.90;;;;;;4998322;28;20199;-80
2022/12/17 20:53:53;;;;;;;10.97;6.40;;;-9.70;99.90;;;;;;4997591;28;20979;-81
2022/12/17 20:56:24;;;;;;;9.33;5.27;;;-9.70;99.90;;;;;;4998875;28;20413;-81
2022/12/17 20:58:55;;;;;;;8.97;5.50;;;-9.80;99.90;;;;;;4998858;28;20418;-81
2022/12/17 21:01:23;;;;;;;9.20;5.63;;;-9.80;99.90;;;;;;4998768;28;20427;-80
2022/12/17 21:03:51;;;;;;;6.20;4.67;;;-9.70;99.90;;;;;;5015928;28;20420;-80
2022/12/17 21:06:19;;;;;;;9.50;4.67;;;-9.60;99.90;;;;;;4998396;28;20415;-80
2022/12/17 21:08:50;;;;;;;6.90;4.20;;;-9.50;99.90;;;;;;4998682;28;20463;-80
2022/12/17 21:11:17;;;;;;;6.90;4.03;;;-9.40;99.90;;;;;;5016465;28;20451;-80
2022/12/17 21:13:43;;;;;;;7.73;4.10;;;-9.50;99.90;;;;;;5016879;28;20806;-79
2022/12/17 21:16:12;;;;;;;6.93;4.00;;;-9.50;99.90;;;;;;4998326;28;20436;-80
2022/12/17 21:18:38;;;;;;;9.50;4.53;;;-9.70;99.90;;;;;;4995720;28;20177;-79
2022/12/17 21:21:09;;;;;;;9.13;4.30;;;-9.60;99.90;;;;;;5013184;28;20432;-79
2022/12/17 21:23:37;;;;;;;7.13;3.80;;;-9.60;99.90;;;;;;5012592;28;20237;-79
2022/12/17 21:26:11;;;;;;;8.23;5.20;;;-9.60;99.90;;;;;;4995434;28;20855;-79
2022/12/17 21:28:40;;;;;;;13.53;6.90;;;-9.50;99.90;;;;;;4995667;28;20407;-79
2022/12/17 21:31:12;;;;;;;10.17;6.13;;;-9.70;99.90;;;;;;4995696;28;20440;-79
2022/12/17 21:33:38;;;;;;;12.90;5.60;;;-9.80;99.90;;;;;;4995111;28;20454;-79
2022/12/17 21:36:04;;;;;;;9.97;5.07;;;-9.80;99.90;;;;;;4995610;28;20418;-79
2022/12/17 21:38:31;;;;;;;10.33;5.53;;;-9.90;99.90;;;;;;5013363;28;20177;-79
2022/12/17 21:41:04;;;;;;;8.00;4.70;;;-9.90;99.90;;;;;;5013454;28;20467;-79
2022/12/17 21:43:30;;;;;;;8.63;4.73;;;-9.90;99.90;;;;;;5012916;28;20488;-79
2022/12/17 21:45:56;;;;;;;7.00;4.57;;;-9.90;99.90;;;;;;5013060;28;20497;-79
2022/12/17 21:48:22;;;;;;;7.83;4.90;;;-9.90;99.90;;;;;;5013410;28;20191;-80
2022/12/17 21:50:47;;;;;;;8.27;5.10;;;-9.80;99.90;;;;;;4995848;28;20902;-79
2022/12/17 21:53:13;;;;;;;9.60;5.43;;;-9.60;99.90;;;;;;4995067;28;20196;-79
2022/12/17 21:55:39;;;;;;;8.00;5.00;;;-9.60;99.90;;;;;;4995658;28;20167;-79
2022/12/17 21:58:05;;;;;;;8.03;4.70;;;-9.60;99.90;;;;;;4995900;28;20176;-79
2022/12/17 22:00:31;;;;;;;8.07;4.37;;;-9.60;99.90;;;;;;4995145;28;20172;-79
2022/12/17 22:02:57;;;;;;;7.50;4.13;;;-9.60;99.90;;;;;;5012692;28;20417;-79
2022/12/17 22:05:22;;;;;;;6.57;3.83;;;-9.70;99.90;;;;;;5016643;28;20179;-79
2022/12/17 22:07:48;;;;;;;6.50;4.17;;;-9.80;99.90;;;;;;4999154;28;20412;-79
2022/12/17 22:10:14;;;;;;;5.13;3.57;;;-9.80;99.90;;;;;;5017171;28;20178;-79
2022/12/17 22:15:24;;;;;;;6.53;4.37;;;-9.90;99.90;;;;;;5016801;28;20231;-79
2022/12/17 22:17:51;;;;;;;6.70;4.27;;;-9.80;99.90;;;;;;5016792;28;20867;-79
2022/12/17 22:20:17;;;;;;;4.33;3.67;;;-9.80;99.90;;;;;;4999733;28;20174;-79
2022/12/17 22:22:44;;;;;;;6.10;4.23;;;-9.80;99.90;;;;;;4998880;28;20436;-79
2022/12/17 22:25:11;;;;;;;7.63;4.40;;;-9.70;99.90;;;;;;4999293;28;20187;-79
2022/12/17 22:27:37;;;;;;;6.93;4.10;;;-9.70;99.90;;;;;;5016644;28;20475;-79
2022/12/17 22:33:01;;;;;;;7.37;4.30;;;-9.80;99.90;;;;;;5016456;28;20956;-79
2022/12/17 22:35:30;;;;;;;6.07;3.87;;;-9.80;99.90;;;;;;5017268;28;20406;-79
2022/12/17 22:37:56;;;;;;;7.07;4.20;;;-9.80;99.90;;;;;;4999112;28;20428;-79
2022/12/17 22:40:21;;;;;;;8.27;5.27;;;-9.90;99.90;;;;;;4999775;28;20414;-79
2022/12/17 22:45:32;;;;;;;9.50;5.30;;;-10.10;99.90;;;;;;5017080;28;20649;-79
2022/12/17 22:47:57;;;;;;;6.37;4.37;;;-9.90;99.90;;;;;;5017157;28;20462;-79
2022/12/17 22:50:23;;;;;;;7.33;4.50;;;-9.90;99.90;;;;;;4999210;28;20223;-80
2022/12/17 22:52:49;;;;;;;7.07;5.17;;;-9.90;99.90;;;;;;5016365;28;20203;-79
2022/12/17 22:55:15;;;;;;;7.10;4.00;;;-10.10;99.90;;;;;;4999577;28;20440;-79
2022/12/17 22:57:40;;;;;;;7.73;4.40;;;-10.10;99.90;;;;;;4999460;28;20187;-79
2022/12/17 23:00:13;;;;;;;7.33;4.43;;;-10.10;99.90;;;;;;4999358;28;20179;-79
2022/12/17 23:02:39;;;;;;;5.40;3.40;;;-10.00;99.90;;;;;;4998801;28;20248;-79
2022/12/17 23:05:05;;;;;;;6.67;3.50;;;-10.00;99.90;;;;;;4999036;28;20420;-79
2022/12/17 23:07:30;;;;;;;6.63;3.47;;;-10.00;99.90;;;;;;5017308;28;20437;-79
2022/12/17 23:09:56;;;;;;;5.17;3.70;;;-10.00;99.90;;;;;;5017242;28;20212;-79
2022/12/17 23:15:06;;;;;;;4.93;3.33;;;-10.00;99.90;;;;;;5017057;28;20191;-79
2022/12/17 23:17:31;;;;;;;6.20;3.70;;;-10.10;99.90;;;;;;5017471;28;20404;-79
2022/12/17 23:19:57;;;;;;;6.07;3.73;;;-10.20;99.90;;;;;;4999748;28;20196;-79
2022/12/17 23:22:22;;;;;;;6.37;3.60;;;-10.20;99.90;;;;;;4999056;28;20205;-79
2022/12/17 23:24:48;;;;;;;5.83;3.40;;;-10.10;99.90;;;;;;5017587;28;20180;-79
2022/12/17 23:27:14;;;;;;;5.57;3.77;;;-10.20;99.90;;;;;;5017565;28;20180;-80
2022/12/17 23:29:39;;;;;;;7.33;4.40;;;-10.30;99.90;;;;;;5017426;28;20175;-79
2022/12/17 23:32:05;;;;;;;9.83;4.53;;;-10.30;99.90;;;;;;5017510;28;20207;-79
2022/12/17 23:34:30;;;;;;;6.43;3.87;;;-10.40;99.90;;;;;;5017323;28;20173;-79
2022/12/17 23:36:56;;;;;;;6.50;3.90;;;-10.40;99.90;;;;;;5018040;28;20182;-79
2022/12/17 23:39:21;;;;;;;9.23;4.53;;;-10.40;99.90;;;;;;5000173;28;20172;-80
2022/12/17 23:41:47;;;;;;;4.33;3.47;;;-10.40;99.90;;;;;;5017613;28;20193;-80
2022/12/17 23:44:12;;;;;;;5.77;3.90;;;-10.40;99.90;;;;;;5017652;28;20172;-79
2022/12/17 23:46:38;;;;;;;7.20;3.87;;;-10.50;99.90;;;;;;5001244;28;20586;-80
2022/12/17 23:49:05;;;;;;;6.20;3.73;;;-10.50;99.90;;;;;;5001843;28;20179;-80
2022/12/17 23:51:31;;;;;;;6.13;3.90;;;-10.50;99.90;;;;;;5015804;28;20246;-79
2022/12/17 23:53:58;;;;;;;6.67;3.90;;;-10.50;99.90;;;;;;4996934;28;20482;-79
2022/12/17 23:56:25;;;;;;;4.80;3.47;;;-10.40;99.90;;;;;;4997118;28;20430;-79
2022/12/17 23:58:56;;;;;;;6.17;3.73;;;-10.50;99.90;;;;;;5014983;28;20908;-79
